Time;durP1;ratioP1;P1;durP2;ratioP2;P2;SDS_P1;SDS_P2;PMS_P1;PMS_P2;Temp;Humidity;BMP_temperature;BMP_pressure;BME280_temperature;BME280_humidity;BME280_pressure;Samples;Min_cycle;Max_cycle;Signal;HPM_P1;HPM_P2
2022/07/18 00:02:21;;;;;;;10.93;7.03;;;16.60;99.90;;;;;;4993838;28;20050;-69
2022/07/18 00:04:47;;;;;;;9.48;6.90;;;16.40;99.90;;;;;;4993697;28;20050;-69
2022/07/18 00:07:14;;;;;;;11.40;7.00;;;16.50;99.90;;;;;;4993565;28;20069;-69
2022/07/18 00:09:40;;;;;;;10.15;6.25;;;16.30;99.90;;;;;;4993463;28;20065;-68
2022/07/18 00:12:08;;;;;;;8.55;5.82;;;16.20;99.90;;;;;;4993812;28;20055;-69
2022/07/18 00:14:34;;;;;;;11.70;6.60;;;16.50;99.90;;;;;;4993338;28;20051;-70
2022/07/18 00:17:01;;;;;;;11.25;6.82;;;16.20;99.90;;;;;;4993427;28;20061;-70
2022/07/18 00:19:27;;;;;;;12.70;6.65;;;16.30;99.90;;;;;;4993503;28;20605;-70
2022/07/18 00:21:52;;;;;;;7.07;5.80;;;16.40;99.90;;;;;;4993263;28;20108;-69
2022/07/18 00:24:18;;;;;;;6.90;5.55;;;16.50;99.90;;;;;;4993602;28;20058;-70
2022/07/18 00:26:44;;;;;;;8.88;6.00;;;16.30;99.90;;;;;;4993409;28;20724;-69
2022/07/18 00:29:10;;;;;;;7.68;5.85;;;16.30;99.90;;;;;;4993360;28;20077;-70
2022/07/18 00:31:35;;;;;;;7.45;5.72;;;16.40;99.90;;;;;;4993261;28;20046;-70
2022/07/18 00:34:01;;;;;;;8.52;6.40;;;16.40;99.90;;;;;;4993112;28;20057;-70
2022/07/18 00:36:27;;;;;;;9.27;5.85;;;16.50;99.90;;;;;;4993071;28;20137;-70
2022/07/18 00:38:54;;;;;;;7.90;6.07;;;16.30;99.90;;;;;;4993154;28;20058;-70
2022/07/18 00:41:19;;;;;;;10.55;6.28;;;16.20;99.90;;;;;;4993193;28;20050;-70
2022/07/18 00:43:45;;;;;;;10.85;6.80;;;16.40;99.90;;;;;;4993063;28;20346;-71
2022/07/18 00:46:11;;;;;;;9.85;6.53;;;16.20;99.90;;;;;;4993231;28;20049;-70
2022/07/18 00:48:41;;;;;;;;;;;16.10;99.90;;;;;;4993560;28;20061;-69
2022/07/18 00:51:07;;;;;;;10.50;7.03;;;16.10;99.90;;;;;;4993058;28;19928;-69
2022/07/18 00:53:33;;;;;;;8.88;6.88;;;16.40;99.90;;;;;;4992841;28;20557;-70
2022/07/18 00:56:00;;;;;;;10.80;6.80;;;16.50;99.90;;;;;;4992978;28;20453;-70
2022/07/18 00:58:26;;;;;;;10.82;6.93;;;16.30;99.90;;;;;;4992798;28;20089;-71
2022/07/18 01:03:37;;;;;;;9.85;6.40;;;16.30;99.90;;;;;;4992637;28;20607;-70
2022/07/18 01:06:02;;;;;;;;;;;16.30;99.90;;;;;;4993169;28;20121;-70
2022/07/18 01:08:28;;;;;;;15.05;7.57;;;16.50;99.90;;;;;;4992755;28;19921;-70
2022/07/18 01:10:54;;;;;;;9.02;7.13;;;16.10;99.90;;;;;;4992048;28;20058;-72
2022/07/18 01:13:20;;;;;;;9.38;6.47;;;16.20;99.90;;;;;;4992598;28;20062;-70
2022/07/18 01:15:46;;;;;;;9.88;6.80;;;16.20;99.90;;;;;;4992442;28;20050;-69
2022/07/18 01:18:12;;;;;;;9.68;6.30;;;16.00;99.90;;;;;;4992282;28;20487;-69
2022/07/18 01:20:38;;;;;;;;;;;16.40;99.90;;;;;;4993088;28;20101;-70
2022/07/18 01:23:04;;;;;;;11.30;6.80;;;16.30;99.90;;;;;;4992565;28;19929;-70
2022/07/18 01:25:30;;;;;;;9.98;6.93;;;15.70;99.90;;;;;;4992480;28;20093;-70
2022/07/18 01:27:56;;;;;;;12.05;7.40;;;16.10;99.90;;;;;;4992384;28;20089;-73
2022/07/18 01:30:23;;;;;;;11.18;7.68;;;16.00;99.90;;;;;;4992394;28;20089;-70
2022/07/18 01:33:00;;;;;;;11.02;8.10;;;15.60;99.90;;;;;;4992182;28;20054;-70
2022/07/18 01:35:27;;;;;;;9.63;7.47;;;16.00;99.90;;;;;;4992402;28;20051;-71
2022/07/18 01:37:55;;;;;;;10.27;7.47;;;16.00;99.90;;;;;;4992375;28;20058;-70
2022/07/18 01:40:21;;;;;;;12.80;7.57;;;16.20;99.90;;;;;;4992232;28;20117;-70
2022/07/18 01:42:47;;;;;;;10.98;7.90;;;15.80;99.90;;;;;;4992136;28;20050;-70
2022/07/18 01:45:14;;;;;;;11.48;7.65;;;15.80;99.90;;;;;;4992085;28;20042;-70
2022/07/18 01:47:40;;;;;;;11.30;7.40;;;16.20;99.90;;;;;;4992396;28;20104;-69
2022/07/18 01:50:06;;;;;;;10.98;7.40;;;16.00;99.90;;;;;;4992158;28;20042;-69
2022/07/18 01:52:32;;;;;;;9.88;6.90;;;16.20;99.90;;;;;;4992281;28;20042;-70
2022/07/18 01:54:58;;;;;;;11.63;7.57;;;16.20;99.90;;;;;;4991966;28;20766;-70
2022/07/18 01:57:23;;;;;;;;;;;16.00;99.90;;;;;;4992531;28;20050;-72
2022/07/18 01:59:49;;;;;;;12.85;7.43;;;16.20;99.90;;;;;;4990737;28;19925;-71
2022/07/18 02:02:15;;;;;;;12.07;7.00;;;16.10;99.90;;;;;;4992132;28;20050;-71
2022/07/18 02:04:59;;;;;;;;;;;15.60;99.90;;;;;;4992656;28;20053;-70
2022/07/18 02:07:31;;;;;;;12.23;6.60;;;16.10;99.90;;;;;;4992054;28;20118;-69
2022/07/18 02:09:58;;;;;;;8.93;6.85;;;15.80;99.90;;;;;;4991972;28;20062;-70
2022/07/18 02:12:24;;;;;;;11.23;7.47;;;16.10;99.90;;;;;;4991805;28;20054;-70
2022/07/18 02:14:50;;;;;;;11.57;7.38;;;15.80;99.90;;;;;;4991956;28;20046;-70
2022/07/18 02:17:17;;;;;;;11.43;7.20;;;15.80;99.90;;;;;;4992087;28;20061;-70
2022/07/18 02:19:43;;;;;;;12.23;7.03;;;15.50;99.90;;;;;;4991945;28;20052;-69
2022/07/18 02:22:09;;;;;;;12.32;7.25;;;15.70;99.90;;;;;;4991936;28;20046;-71
2022/07/18 02:24:34;;;;;;;;;;;15.90;99.90;;;;;;4995065;28;20058;-71
2022/07/18 02:27:00;;;;;;;14.85;8.07;;;15.50;99.90;;;;;;4995488;28;19929;-71
2022/07/18 02:29:25;;;;;;;;;;;15.40;99.90;;;;;;4995924;28;20054;-71
2022/07/18 02:31:51;;;;;;;14.65;7.07;;;15.60;99.90;;;;;;4995542;28;19926;-71
2022/07/18 02:34:17;;;;;;;;;;;15.90;99.90;;;;;;4995895;28;20042;-70
2022/07/18 02:36:43;;;;;;;16.63;7.38;;;15.90;99.90;;;;;;4995456;28;19983;-69
2022/07/18 02:39:09;;;;;;;;;;;15.80;99.90;;;;;;4994857;28;20065;-70
2022/07/18 02:41:35;;;;;;;12.85;7.65;;;15.80;99.90;;;;;;4995442;28;20349;-71
2022/07/18 02:44:01;;;;;;;;;;;15.90;99.90;;;;;;4996071;28;20085;-70
2022/07/18 02:46:26;;;;;;;16.90;7.50;;;15.60;99.90;;;;;;4995319;28;19961;-70
2022/07/18 02:48:52;;;;;;;;;;;15.60;99.90;;;;;;4995690;28;20042;-71
2022/07/18 02:51:18;;;;;;;17.42;7.85;;;15.20;99.90;;;;;;4995127;28;19922;-71
2022/07/18 02:53:44;;;;;;;13.80;7.10;;;15.30;99.90;;;;;;4995050;28;20325;-70
2022/07/18 02:56:09;;;;;;;;;;;15.40;99.90;;;;;;4995271;28;20065;-70
2022/07/18 02:58:35;;;;;;;14.88;7.28;;;15.50;99.90;;;;;;4995031;28;20021;-69
2022/07/18 03:01:00;;;;;;;;;;;15.70;99.90;;;;;;4995414;28;20695;-70
2022/07/18 03:03:26;;;;;;;14.00;7.47;;;15.70;99.90;;;;;;4995266;28;20013;-71
2022/07/18 03:05:52;;;;;;;;;;;15.40;99.90;;;;;;4995372;28;20129;-70
2022/07/18 03:08:17;;;;;;;11.63;7.32;;;15.40;99.90;;;;;;4994804;28;20012;-70
2022/07/18 03:10:43;;;;;;;;;;;15.70;99.90;;;;;;4994643;28;20105;-71
2022/07/18 03:13:10;;;;;;;16.50;6.93;;;15.50;99.90;;;;;;5026478;28;19929;-71
2022/07/18 03:15:36;;;;;;;13.23;7.28;;;15.80;99.90;;;;;;4994697;28;20474;-72
2022/07/18 03:18:02;;;;;;;12.93;7.57;;;15.60;99.90;;;;;;4994583;28;20517;-71
2022/07/18 03:20:28;;;;;;;13.48;7.00;;;16.00;99.90;;;;;;4994547;28;20056;-71
2022/07/18 03:22:54;;;;;;;;;;;15.70;99.90;;;;;;4994999;28;20050;-71
2022/07/18 03:25:20;;;;;;;9.18;6.22;;;15.60;99.90;;;;;;4994399;28;19926;-70
2022/07/18 03:27:45;;;;;;;;;;;15.60;99.90;;;;;;4995170;28;20089;-70
2022/07/18 03:30:12;;;;;;;12.75;6.75;;;15.70;99.90;;;;;;4994392;28;19926;-70
2022/07/18 03:32:37;;;;;;;12.15;6.95;;;15.40;99.90;;;;;;4994491;28;20050;-71
2022/07/18 03:35:03;;;;;;;;;;;15.50;99.90;;;;;;4994361;28;20449;-70
2022/07/18 03:37:29;;;;;;;11.73;7.75;;;15.70;99.90;;;;;;4994290;28;19933;-70
2022/07/18 03:39:54;;;;;;;;;;;15.80;99.90;;;;;;4994546;28;20560;-71
2022/07/18 03:42:20;;;;;;;12.60;7.35;;;15.50;99.90;;;;;;4994227;28;19975;-70
2022/07/18 03:44:46;;;;;;;;;;;15.50;99.90;;;;;;4994786;28;20085;-71
2022/07/18 03:47:11;;;;;;;11.63;6.93;;;15.80;99.90;;;;;;4994078;28;19926;-70
2022/07/18 03:49:37;;;;;;;;;;;15.50;99.90;;;;;;4994543;28;20055;-71
2022/07/18 03:52:03;;;;;;;9.95;6.80;;;15.90;99.90;;;;;;4992928;28;19982;-70
2022/07/18 03:54:28;;;;;;;;;;;15.70;99.90;;;;;;4994147;28;20044;-71
2022/07/18 03:56:54;;;;;;;13.85;6.95;;;15.60;99.90;;;;;;4994079;28;19944;-71
2022/07/18 03:59:20;;;;;;;;;;;15.60;99.90;;;;;;4993251;28;20092;-71
2022/07/18 04:01:45;;;;;;;13.05;7.40;;;15.60;99.90;;;;;;4993944;28;19948;-71
2022/07/18 04:04:11;;;;;;;;;;;15.90;99.90;;;;;;4994199;28;20050;-70
2022/07/18 04:06:37;;;;;;;14.07;7.28;;;16.00;99.90;;;;;;4992581;28;19929;-70
2022/07/18 04:09:03;;;;;;;;;;;15.90;99.90;;;;;;4993983;28;20058;-71
2022/07/18 04:11:28;;;;;;;10.95;7.07;;;15.90;99.90;;;;;;4993883;28;19928;-71
2022/07/18 04:13:54;;;;;;;;;;;15.90;99.90;;;;;;4993955;28;20413;-71
2022/07/18 04:16:20;;;;;;;15.15;7.70;;;15.90;99.90;;;;;;4993511;28;19980;-71
2022/07/18 04:18:46;;;;;;;8.65;6.38;;;16.10;99.90;;;;;;4993601;28;20046;-70
2022/07/18 04:21:12;;;;;;;10.73;6.88;;;16.00;99.90;;;;;;4993393;28;20568;-71
2022/07/18 04:23:38;;;;;;;;;;;16.20;99.90;;;;;;5008898;28;20216;-69
2022/07/18 04:26:04;;;;;;;11.80;7.17;;;16.00;99.90;;;;;;4993327;28;19980;-70
2022/07/18 04:28:30;;;;;;;11.30;7.03;;;16.00;99.90;;;;;;4993539;28;20142;-71
2022/07/18 04:30:56;;;;;;;;;;;16.10;99.90;;;;;;4993838;28;20137;-71
2022/07/18 04:33:22;;;;;;;12.63;6.60;;;16.00;99.90;;;;;;4993563;28;19922;-71
2022/07/18 04:35:48;;;;;;;11.15;6.95;;;16.10;99.90;;;;;;5012581;28;20053;-70
2022/07/18 04:38:15;;;;;;;12.15;6.80;;;16.30;99.90;;;;;;5003727;28;20049;-71
2022/07/18 04:40:41;;;;;;;11.93;6.93;;;16.50;99.90;;;;;;4992234;28;20112;-71
2022/07/18 04:43:07;;;;;;;;;;;16.30;99.90;;;;;;4993607;28;20048;-72
2022/07/18 04:45:34;;;;;;;11.98;6.18;;;16.20;99.90;;;;;;4992694;28;19926;-71
2022/07/18 04:48:01;;;;;;;13.45;7.10;;;16.00;99.90;;;;;;4992905;28;20051;-71
2022/07/18 04:50:29;;;;;;;10.48;6.70;;;16.10;99.90;;;;;;4998095;28;20164;-71
2022/07/18 04:52:56;;;;;;;12.50;6.55;;;16.40;99.90;;;;;;5009560;28;20050;-71
2022/07/18 04:55:22;;;;;;;11.02;7.25;;;16.20;99.90;;;;;;5012438;28;20053;-70
2022/07/18 04:57:49;;;;;;;11.90;6.40;;;16.40;99.90;;;;;;5044409;28;20557;-71
2022/07/18 05:00:18;;;;;;;10.43;6.55;;;16.50;99.90;;;;;;5012414;28;20050;-71
2022/07/18 05:02:46;;;;;;;12.68;6.63;;;16.10;99.90;;;;;;5012513;28;20045;-71
2022/07/18 05:05:13;;;;;;;9.00;6.22;;;16.00;99.90;;;;;;5007953;28;20095;-71
2022/07/18 05:07:40;;;;;;;13.13;6.85;;;16.40;99.90;;;;;;5022584;28;20048;-70
2022/07/18 05:10:08;;;;;;;10.02;6.10;;;16.40;99.90;;;;;;5017621;28;20058;-71
2022/07/18 05:12:35;;;;;;;9.18;5.95;;;16.50;99.90;;;;;;5024112;28;20064;-71
2022/07/18 05:15:01;;;;;;;11.55;5.90;;;16.60;99.90;;;;;;5019158;28;20099;-71
2022/07/18 05:17:27;;;;;;;;;;;16.50;99.90;;;;;;5019464;28;20049;-71
2022/07/18 05:19:52;;;;;;;10.48;5.60;;;16.50;99.90;;;;;;5019416;28;19921;-71
2022/07/18 05:22:18;;;;;;;;;;;16.60;99.90;;;;;;5016654;28;20050;-71
2022/07/18 05:24:43;;;;;;;9.50;5.90;;;16.90;99.90;;;;;;5022295;28;19921;-71
2022/07/18 05:27:09;;;;;;;;;;;16.60;99.90;;;;;;5015172;28;20053;-71
2022/07/18 05:29:35;;;;;;;12.48;5.57;;;16.50;99.90;;;;;;5014693;28;19921;-71
2022/07/18 05:32:01;;;;;;;;;;;17.00;99.90;;;;;;5016585;28;20072;-71
2022/07/18 05:34:27;;;;;;;8.95;5.28;;;16.70;99.90;;;;;;5018811;28;19925;-72
2022/07/18 05:36:53;;;;;;;;;;;16.80;99.90;;;;;;5021787;28;20052;-71
2022/07/18 05:39:18;;;;;;;7.75;4.90;;;16.80;99.90;;;;;;5017617;28;19925;-71
2022/07/18 05:41:44;;;;;;;;;;;16.70;99.90;;;;;;5020027;28;20123;-70
2022/07/18 05:44:09;;;;;;;8.80;5.28;;;16.90;99.90;;;;;;5020875;28;19925;-70
2022/07/18 05:46:35;;;;;;;;;;;16.90;99.90;;;;;;5020692;28;20053;-68
2022/07/18 05:49:00;;;;;;;11.15;5.10;;;17.10;99.90;;;;;;5018872;28;20211;-69
2022/07/18 05:51:26;;;;;;;8.07;4.78;;;16.90;99.90;;;;;;5021114;28;20088;-70
2022/07/18 05:53:52;;;;;;;;;;;17.00;99.90;;;;;;5019022;28;20053;-69
2022/07/18 05:56:17;;;;;;;7.28;4.60;;;17.30;99.90;;;;;;5020800;28;19936;-69
2022/07/18 05:58:43;;;;;;;;;;;17.30;99.90;;;;;;5023531;28;20041;-69
2022/07/18 06:01:08;;;;;;;7.38;4.38;;;17.60;99.90;;;;;;5022941;28;20353;-70
2022/07/18 06:03:34;;;;;;;;;;;17.50;99.90;;;;;;5026209;28;20119;-69
2022/07/18 06:06:00;;;;;;;7.70;4.65;;;17.40;99.90;;;;;;5025053;28;19932;-69
2022/07/18 06:08:25;;;;;;;6.55;4.53;;;17.80;99.90;;;;;;5022315;28;20098;-70
2022/07/18 06:10:51;;;;;;;;;;;17.50;99.90;;;;;;5022210;28;20143;-69
2022/07/18 06:13:17;;;;;;;7.85;4.40;;;20.00;99.90;;;;;;5021913;28;20285;-69
2022/07/18 06:15:42;;;;;;;;;;;18.00;99.90;;;;;;5023362;28;20347;-70
2022/07/18 06:18:08;;;;;;;9.18;4.93;;;17.80;99.90;;;;;;5024948;28;19925;-69
2022/07/18 06:20:33;;;;;;;8.48;4.90;;;17.80;99.90;;;;;;5021476;28;20497;-69
2022/07/18 06:22:59;;;;;;;11.02;5.13;;;18.10;99.90;;;;;;5020365;28;20141;-69
2022/07/18 06:25:25;;;;;;;8.07;4.90;;;18.10;99.90;;;;;;5023275;28;20048;-70
2022/07/18 06:27:50;;;;;;;7.20;4.75;;;18.50;99.90;;;;;;5023010;28;20081;-70
2022/07/18 06:30:16;;;;;;;10.75;4.68;;;18.20;99.90;;;;;;5024345;28;20099;-71
2022/07/18 06:32:42;;;;;;;8.82;5.18;;;18.60;99.90;;;;;;5021433;28;20057;-70
2022/07/18 06:35:08;;;;;;;8.63;5.30;;;18.60;99.90;;;;;;5021319;28;20046;-70
2022/07/18 06:37:34;;;;;;;10.15;4.93;;;18.40;99.90;;;;;;5024728;28;20115;-69
2022/07/18 06:40:00;;;;;;;9.27;4.63;;;18.80;99.90;;;;;;5023245;28;20053;-69
2022/07/18 06:42:26;;;;;;;8.30;5.00;;;18.70;99.90;;;;;;5020950;28;20048;-70
2022/07/18 06:44:52;;;;;;;5.97;4.47;;;19.00;99.90;;;;;;5024096;28;20497;-71
2022/07/18 06:47:17;;;;;;;7.72;4.70;;;18.70;99.90;;;;;;5021765;28;20053;-70
2022/07/18 06:49:43;;;;;;;7.78;4.93;;;19.00;99.90;;;;;;5024258;28;20119;-70
2022/07/18 06:52:11;;;;;;;13.70;4.90;;;19.30;99.90;;;;;;5019902;28;20060;-65
2022/07/18 06:54:39;;;;;;;9.82;4.43;;;19.30;99.90;;;;;;5014417;28;20141;-67
2022/07/18 06:57:07;;;;;;;7.68;4.85;;;19.30;99.90;;;;;;5024878;28;20045;-71
2022/07/18 07:05:13;;;;;;;7.72;3.90;;;19.60;99.90;;;;;;5107488;27;20400;-68
2022/07/18 07:07:39;;;;;;;8.50;4.28;;;19.90;99.90;;;;;;5107565;28;20046;-66
2022/07/18 07:10:05;;;;;;;8.25;4.35;;;19.90;99.90;;;;;;5105684;28;20052;-69
2022/07/18 07:12:38;;;;;;;7.35;4.25;;;20.30;99.90;;;;;;5106730;28;20044;-78
2022/07/18 07:15:04;;;;;;;7.55;4.40;;;20.50;99.90;;;;;;5107601;28;20456;-70
2022/07/18 07:17:32;;;;;;;8.30;4.70;;;20.20;99.90;;;;;;5105965;28;20454;-69
2022/07/18 07:19:58;;;;;;;7.25;4.20;;;20.30;99.90;;;;;;5100659;28;20465;-75
2022/07/18 07:22:23;;;;;;;6.53;4.05;;;20.40;99.90;;;;;;5105596;28;20075;-74
2022/07/18 07:24:49;;;;;;;5.53;4.00;;;20.80;99.90;;;;;;5106756;28;20050;-70
2022/07/18 07:27:15;;;;;;;6.35;4.03;;;20.70;99.90;;;;;;5106160;28;20060;-68
2022/07/18 07:29:40;;;;;;;10.68;4.07;;;20.90;99.90;;;;;;5106575;28;20048;-68
2022/07/18 07:32:06;;;;;;;7.05;3.90;;;20.60;99.90;;;;;;5105880;28;20047;-70
2022/07/18 07:34:32;;;;;;;9.75;3.53;;;20.90;99.90;;;;;;5104746;28;20043;-71
2022/07/18 07:36:58;;;;;;;4.82;3.20;;;20.90;99.90;;;;;;5106881;28;20059;-69
2022/07/18 07:39:23;;;;;;;6.88;3.15;;;21.20;99.90;;;;;;5106757;28;20079;-71
2022/07/18 07:41:50;;;;;;;7.80;3.92;;;20.90;99.90;;;;;;5104793;28;20749;-71
2022/07/18 07:44:16;;;;;;;5.47;3.28;;;21.80;99.90;;;;;;5105270;28;20040;-71
2022/07/18 07:46:41;;;;;;;9.35;3.35;;;21.80;99.90;;;;;;5107023;28;20086;-70
2022/07/18 07:49:07;;;;;;;7.82;3.05;;;21.50;99.90;;;;;;5106399;28;20047;-71
2022/07/18 07:51:33;;;;;;;6.47;3.10;;;21.70;99.90;;;;;;5106278;28;20047;-73
2022/07/18 07:53:58;;;;;;;7.57;3.10;;;21.70;99.90;;;;;;5103933;28;20036;-70
2022/07/18 07:56:24;;;;;;;5.80;2.90;;;21.90;99.90;;;;;;5104718;28;20074;-70
2022/07/18 07:58:50;;;;;;;3.95;3.03;;;21.80;99.90;;;;;;5106123;28;20068;-71
2022/07/18 08:01:19;;;;;;;5.10;3.38;;;21.80;99.90;;;;;;5086120;28;20055;-74
2022/07/18 08:03:46;;;;;;;6.80;3.10;;;21.70;99.90;;;;;;5102278;28;20593;-70
2022/07/18 08:06:11;;;;;;;8.57;3.20;;;21.60;99.90;;;;;;5102444;28;20048;-69
2022/07/18 08:08:37;;;;;;;6.63;2.78;;;22.00;99.90;;;;;;5105620;28;20094;-68
2022/07/18 08:11:03;;;;;;;9.32;3.17;;;22.20;99.90;;;;;;5104188;28;20206;-66
2022/07/18 08:13:29;;;;;;;6.75;2.85;;;22.50;99.90;;;;;;5106458;28;20043;-68
2022/07/18 08:15:54;;;;;;;3.90;2.65;;;22.40;99.90;;;;;;5078442;28;20500;-69
2022/07/18 08:18:20;;;;;;;9.10;3.17;;;23.00;99.90;;;;;;5092328;28;20157;-69
2022/07/18 08:20:46;;;;;;;6.28;2.40;;;23.00;99.90;;;;;;5090224;28;20044;-71
2022/07/18 08:23:11;;;;;;;7.18;2.55;;;23.50;99.90;;;;;;5092104;28;20075;-65
2022/07/18 08:25:39;;;;;;;5.57;2.45;;;23.40;99.90;;;;;;5090458;28;20044;-68
2022/07/18 08:28:06;;;;;;;6.45;2.70;;;23.20;99.90;;;;;;5092028;28;20402;-67
2022/07/18 08:30:33;;;;;;;5.22;2.30;;;23.30;99.90;;;;;;5092377;28;20043;-68
2022/07/18 08:33:00;;;;;;;5.47;2.15;;;23.70;99.90;;;;;;5090900;28;20054;-68
2022/07/18 08:35:27;;;;;;;5.93;2.10;;;23.20;99.90;;;;;;5092680;28;20063;-68
2022/07/18 08:37:53;;;;;;;4.22;2.15;;;23.10;99.90;;;;;;5087903;28;20052;-66
2022/07/18 08:40:19;;;;;;;6.18;2.20;;;23.10;99.90;;;;;;5091321;28;20058;-72
2022/07/18 08:42:44;;;;;;;5.22;2.08;;;23.40;99.90;;;;;;5092318;28;20062;-72
2022/07/18 08:45:10;;;;;;;6.38;2.15;;;23.20;99.90;;;;;;5088963;28;20060;-71
2022/07/18 08:47:36;;;;;;;5.40;2.08;;;23.30;99.90;;;;;;5092240;28;20040;-72
2022/07/18 08:50:04;;;;;;;3.40;2.08;;;23.30;99.90;;;;;;5093154;28;20050;-72
2022/07/18 08:52:29;;;;;;;4.97;2.45;;;23.20;99.90;;;;;;5092491;28;20051;-72
2022/07/18 08:54:56;;;;;;;6.70;2.47;;;23.50;99.90;;;;;;5092406;28;20044;-72
2022/07/18 08:57:22;;;;;;;6.85;2.13;;;23.40;99.90;;;;;;5093207;28;20040;-72
2022/07/18 08:59:48;;;;;;;7.07;2.42;;;23.80;99.90;;;;;;5088620;28;20055;-71
2022/07/18 09:02:14;;;;;;;6.05;2.00;;;23.40;99.90;;;;;;5092477;28;20515;-71
2022/07/18 09:04:42;;;;;;;7.72;2.45;;;23.30;99.90;;;;;;5090667;28;20098;-72
2022/07/18 09:07:09;;;;;;;3.10;2.05;;;23.40;99.90;;;;;;5092143;28;20044;-71
2022/07/18 09:09:36;;;;;;;7.43;2.30;;;23.90;99.90;;;;;;5092498;28;20048;-73
2022/07/18 09:12:05;;;;;;;5.05;1.90;;;23.90;99.90;;;;;;5091760;28;20056;-71
2022/07/18 09:14:35;;;;;;;8.52;2.00;;;24.20;99.90;;;;;;5091872;28;20379;-74
2022/07/18 09:17:07;;;;;;;6.75;2.10;;;24.10;99.90;;;;;;5092758;28;20048;-73
2022/07/18 09:19:33;;;;;;;4.47;1.60;;;24.30;99.90;;;;;;5092361;28;20036;-69
2022/07/18 09:22:18;;;;;;;3.88;1.80;;;24.10;99.90;;;;;;5090474;28;20043;-72
2022/07/18 09:24:58;;;;;;;4.65;1.75;;;24.50;99.90;;;;;;5091102;28;20056;-72
2022/07/18 09:27:24;;;;;;;3.65;1.70;;;24.80;99.90;;;;;;5091323;28;20047;-72
2022/07/18 09:30:11;;;;;;;5.57;1.90;;;25.30;99.90;;;;;;5091510;28;20079;-73
2022/07/18 09:32:39;;;;;;;4.28;1.77;;;24.90;99.90;;;;;;5088628;28;20134;-71
2022/07/18 09:35:13;;;;;;;4.95;1.83;;;25.20;99.90;;;;;;5091055;28;20044;-71
2022/07/18 09:37:39;;;;;;;7.50;2.53;;;25.10;99.90;;;;;;5089601;28;20123;-73
2022/07/18 09:40:19;;;;;;;7.78;2.00;;;25.00;99.90;;;;;;5091834;28;20467;-72
2022/07/18 09:42:50;;;;;;;5.45;1.90;;;25.30;99.90;;;;;;5091716;28;20052;-71
2022/07/18 09:45:22;;;;;;;6.15;2.15;;;25.50;99.90;;;;;;5090366;28;20051;-69
2022/07/18 09:47:56;;;;;;;5.88;1.90;;;25.60;99.90;;;;;;5091647;28;20048;-71
2022/07/18 09:50:41;;;;;;;7.30;2.20;;;25.50;99.90;;;;;;5091508;28;20197;-71
2022/07/18 09:53:19;;;;;;;7.05;2.10;;;25.70;99.90;;;;;;5088844;28;20052;-69
2022/07/18 09:55:44;;;;;;;6.15;2.45;;;25.00;99.90;;;;;;5090744;28;20052;-70
2022/07/18 09:58:10;;;;;;;6.47;2.38;;;25.60;99.90;;;;;;5090917;28;20510;-70
2022/07/18 10:00:38;;;;;;;4.85;2.35;;;25.60;99.90;;;;;;5090659;28;20172;-69
2022/07/18 10:03:06;;;;;;;5.63;2.30;;;26.10;99.90;;;;;;5090882;28;20063;-69
2022/07/18 10:05:34;;;;;;;6.72;2.25;;;25.80;99.90;;;;;;5090054;28;20052;-72
2022/07/18 10:08:02;;;;;;;4.15;1.98;;;25.90;99.90;;;;;;5090900;28;20085;-71
2022/07/18 10:10:29;;;;;;;4.55;2.20;;;25.50;99.90;;;;;;5087491;28;20051;-70
2022/07/18 10:12:58;;;;;;;7.35;2.35;;;26.00;99.90;;;;;;5091125;28;20048;-70
2022/07/18 10:15:27;;;;;;;8.02;2.53;;;25.70;99.90;;;;;;5089935;28;20044;-70
2022/07/18 10:17:53;;;;;;;6.95;2.35;;;26.10;99.90;;;;;;5090799;28;20048;-73
2022/07/18 10:20:30;;;;;;;6.25;2.63;;;26.00;99.90;;;;;;5090270;28;20043;-71
2022/07/18 10:23:00;;;;;;;15.70;2.97;;;26.60;99.90;;;;;;5092398;28;20051;-70
2022/07/18 10:25:26;;;;;;;6.03;2.10;;;26.70;99.90;;;;;;5091935;28;20376;-70
2022/07/18 10:28:04;;;;;;;4.70;2.30;;;26.50;99.90;;;;;;5092279;28;20101;-71
2022/07/18 10:30:33;;;;;;;3.95;2.30;;;26.40;99.90;;;;;;5092054;28;20487;-69
2022/07/18 10:33:00;;;;;;;5.75;2.53;;;26.60;99.90;;;;;;5091786;28;20070;-70
2022/07/18 10:36:04;;;;;;;7.38;2.60;;;26.70;99.90;;;;;;5091908;28;20209;-70
2022/07/18 10:38:30;;;;;;;5.40;2.75;;;27.20;99.90;;;;;;5091097;28;20454;-70
2022/07/18 10:41:12;;;;;;;4.32;2.63;;;26.70;99.90;;;;;;5091989;28;20062;-70
2022/07/18 10:43:41;;;;;;;8.30;2.80;;;27.00;99.90;;;;;;5091728;28;20044;-70
2022/07/18 10:46:09;;;;;;;6.90;2.75;;;27.60;99.90;;;;;;5091977;28;20127;-71
2022/07/18 10:48:35;;;;;;;6.25;3.00;;;27.40;99.90;;;;;;5092022;28;20117;-71
2022/07/18 10:51:09;;;;;;;7.55;3.70;;;27.70;99.90;;;;;;5091821;28;20466;-71
2022/07/18 10:53:53;;;;;;;5.90;3.10;;;27.90;99.90;;;;;;5091864;28;20059;-70
2022/07/18 10:56:28;;;;;;;5.88;3.08;;;27.70;99.90;;;;;;5091759;28;20083;-70
2022/07/18 10:58:57;;;;;;;8.63;3.40;;;27.70;99.90;;;;;;5091810;28;20055;-73
2022/07/18 11:01:24;;;;;;;6.75;3.83;;;28.10;99.90;;;;;;5073972;28;20113;-70
2022/07/18 11:04:10;;;;;;;7.20;4.07;;;27.80;99.90;;;;;;5091414;28;20496;-71
2022/07/18 11:07:09;;;;;;;10.65;3.40;;;28.00;99.90;;;;;;5086999;28;20075;-72
2022/07/18 11:09:38;;;;;;;4.50;3.20;;;28.00;99.90;;;;;;5087297;28;20052;-69
2022/07/18 11:12:19;;;;;;;14.60;4.63;;;28.20;99.90;;;;;;5090414;28;20044;-73
2022/07/18 11:15:08;;;;;;;6.38;3.78;;;27.90;99.90;;;;;;5089458;28;20044;-70
2022/07/18 11:17:51;;;;;;;6.18;3.83;;;27.50;99.90;;;;;;5086850;28;20055;-71
2022/07/18 11:20:35;;;;;;;8.77;3.97;;;28.20;99.90;;;;;;5088672;28;20497;-73
2022/07/18 11:23:21;;;;;;;7.40;4.65;;;28.30;99.90;;;;;;5090314;28;20040;-69
2022/07/18 11:25:52;;;;;;;8.23;4.75;;;28.30;99.90;;;;;;5089084;28;20506;-70
2022/07/18 11:28:21;;;;;;;7.70;4.88;;;28.60;99.90;;;;;;5089949;28;20158;-70
2022/07/18 11:31:00;;;;;;;7.07;3.67;;;28.70;99.90;;;;;;5090237;28;20051;-70
2022/07/18 11:33:28;;;;;;;7.60;4.10;;;28.70;99.90;;;;;;5090355;28;20071;-69
2022/07/18 11:36:08;;;;;;;8.35;4.60;;;28.70;99.90;;;;;;5089676;28;20116;-71
2022/07/18 11:38:36;;;;;;;6.45;4.40;;;28.80;99.90;;;;;;5090288;28;20052;-70
2022/07/18 11:41:03;;;;;;;13.35;4.75;;;28.80;99.90;;;;;;5090173;28;20051;-68
2022/07/18 11:43:29;;;;;;;8.23;4.28;;;28.60;99.90;;;;;;5080450;28;20044;-72
2022/07/18 11:46:06;;;;;;;8.88;4.40;;;28.50;99.90;;;;;;5086892;28;20093;-69
2022/07/18 11:48:36;;;;;;;7.57;3.90;;;29.20;99.90;;;;;;5089252;28;20403;-70
2022/07/18 11:51:08;;;;;;;6.57;3.53;;;29.40;99.90;;;;;;5091619;28;20047;-68
2022/07/18 11:53:33;;;;;;;7.20;4.30;;;29.00;99.90;;;;;;5091584;28;20117;-69
2022/07/18 11:56:04;;;;;;;8.05;4.38;;;29.10;99.90;;;;;;5093928;28;20501;-70
2022/07/18 11:58:38;;;;;;;8.13;4.90;;;29.30;99.90;;;;;;5093434;28;20069;-69
2022/07/18 12:01:05;;;;;;;10.45;5.18;;;29.40;99.70;;;;;;5093587;28;20463;-69
2022/07/18 12:03:34;;;;;;;7.95;4.18;;;29.60;99.90;;;;;;5093192;28;20052;-68
2022/07/18 12:06:19;;;;;;;5.35;3.63;;;29.40;99.90;;;;;;5092814;28;20062;-69
2022/07/18 12:08:49;;;;;;;7.65;3.85;;;29.70;99.90;;;;;;5094784;28;20052;-69
2022/07/18 12:11:17;;;;;;;7.43;4.20;;;29.40;98.90;;;;;;5095024;28;20087;-68
2022/07/18 12:13:57;;;;;;;10.20;3.83;;;29.60;99.40;;;;;;5094794;28;20048;-67
2022/07/18 12:16:37;;;;;;;8.20;3.75;;;29.80;99.90;;;;;;5094631;28;20054;-67
2022/07/18 12:19:12;;;;;;;6.65;4.32;;;29.60;98.80;;;;;;5094602;28;20044;-68
2022/07/18 12:21:44;;;;;;;9.48;4.38;;;29.80;99.00;;;;;;5094449;28;20052;-68
2022/07/18 12:24:28;;;;;;;4.80;3.65;;;29.50;98.70;;;;;;5094683;28;20051;-70
2022/07/18 12:27:32;;;;;;;7.10;3.97;;;29.70;99.10;;;;;;5094509;28;20044;-70
2022/07/18 12:30:11;;;;;;;6.28;4.18;;;29.40;98.20;;;;;;5094233;28;20056;-68
2022/07/18 12:32:53;;;;;;;8.10;3.90;;;29.90;99.30;;;;;;5094290;28;20463;-68
2022/07/18 12:35:24;;;;;;;5.82;4.22;;;29.40;98.10;;;;;;5094354;28;20473;-68
2022/07/18 12:37:57;;;;;;;6.60;4.20;;;29.80;97.80;;;;;;5094224;28;20048;-69
2022/07/18 12:40:23;;;;;;;5.97;3.97;;;29.90;97.40;;;;;;5094111;28;20047;-67
2022/07/18 12:42:49;;;;;;;6.82;3.70;;;29.80;98.10;;;;;;5094373;28;20044;-69
2022/07/18 12:45:15;;;;;;;10.65;4.35;;;30.00;98.30;;;;;;5093994;28;20051;-68
2022/07/18 12:47:41;;;;;;;8.43;4.10;;;29.90;96.80;;;;;;5094084;28;20048;-69
2022/07/18 12:50:08;;;;;;;7.53;4.20;;;30.40;97.30;;;;;;5094024;28;20040;-68
2022/07/18 12:52:34;;;;;;;6.63;3.67;;;30.20;96.80;;;;;;5093887;28;20632;-70
2022/07/18 12:55:00;;;;;;;7.40;3.75;;;30.00;97.40;;;;;;5093563;28;20119;-70
2022/07/18 12:57:26;;;;;;;10.18;4.10;;;30.20;97.30;;;;;;5093486;28;20040;-68
2022/07/18 12:59:52;;;;;;;6.95;4.20;;;29.50;96.70;;;;;;5093717;28;20048;-70
2022/07/18 13:02:18;;;;;;;7.38;3.95;;;29.70;97.50;;;;;;5093213;28;20443;-67
2022/07/18 13:04:44;;;;;;;6.60;4.72;;;29.70;95.90;;;;;;5075014;28;20056;-68
2022/07/18 13:07:11;;;;;;;8.30;3.95;;;29.90;96.60;;;;;;5093090;28;20514;-69
2022/07/18 13:09:36;;;;;;;6.90;4.18;;;29.60;96.00;;;;;;5091954;28;20051;-69